METAR Data
IDs: Format: Raw Decoded Include TAF

Data at: 1235 UTC 23 Mar 2019

KRZL 231215Z AUTO 00000KT 7SM CLR M03/M05 A3032 RMK AO2